SBOI Airport Information

Runway Information
Runway 3 Length 3937 ft width 98 ft
Elevation ft Threshold ft Heading 0
Runway 21 Length 3937 ft Width 98 ft
Elevation ft Threshold ft Heading 0
Airport Frequencies
Type AFIS Name RDO Frequency 125.9 MHZ
Airport Navaids
Type NDB Name Oiapoque Frequency 340 KHZ
Airport Weather Information & NOTAM
ADDS - METARS form results

(1534 UTC 26 September 2022)
Data provider http://aviationweather.gov/metar/data/
 
METAR text: SBOI 261500Z 13007KT 9999 SCT040 32/22 Q1013
Conditions at: SBOI (OIAPOQUE , BR) observed 1500 UTC 26 September 2022
Temperature: 32.0°C (90°F)
Dewpoint: 22.0°C (72°F) [RH = 56%]
Pressure (altimeter): 29.91 inches Hg (1013.0 mb)
Winds: from the SE (130 degrees) at 8 MPH (7 knots; 3.6 m/s)
Visibility: 6 or more miles (10+ km)
Ceiling: at least 12,000 feet AGL
Clouds: scattered clouds at 4000 feet AGL
Weather: no significant weather observed at this time

Forecast for: SBOI (OIAPOQUE , BR)
Text: TAF SBOI 260841Z 2612/2624 12005KT 9999 SCT023 TN31/2613Z TX34/2618Z RMK PHI
Forecast period: 1200 UTC 26 September 2022 to 0000 UTC 27 September 2022
Forecast type: FROM: standard forecast or significant change
Winds: from the ESE (120 degrees) at 6 MPH (5 knots; 2.6 m/s)
Visibility: 6 or more miles (10+ km)
Ceiling: at least 12,000 feet AGL
Clouds: scattered clouds at 2300 feet AGL
Weather: no significant weather forecast for this period